createdAt,value
2022-09-27T00:01:37.605Z,100.00
2022-09-27T00:04:53.886Z,100.00
2022-09-27T00:08:10.573Z,100.00
2022-09-27T00:11:33.179Z,100.00
2022-09-27T00:14:49.697Z,100.00
2022-09-27T00:18:05.998Z,100.00
2022-09-27T00:21:23.212Z,100.00
2022-09-27T00:24:39.499Z,100.00
2022-09-27T00:27:55.722Z,100.00
2022-09-27T00:31:14.902Z,100.00
2022-09-27T00:34:31.061Z,100.00
2022-09-27T00:37:46.927Z,100.00
2022-09-27T00:41:03.170Z,100.00
2022-09-27T00:45:13.650Z,100.00
2022-09-27T00:48:34.870Z,100.00
2022-09-27T00:51:54.648Z,100.00
2022-09-27T00:55:18.074Z,100.00
2022-09-27T00:59:08.022Z,100.00
2022-09-27T01:02:25.644Z,100.00
2022-09-27T01:05:44.128Z,100.00
2022-09-27T01:09:00.387Z,100.00
2022-09-27T01:12:22.694Z,100.00
2022-09-27T01:15:45.915Z,100.00
2022-09-27T01:19:13.348Z,100.00
2022-09-27T01:22:33.613Z,100.00
2022-09-27T01:32:27.974Z,100.00
2022-09-27T01:35:53.843Z,100.00
2022-09-27T01:39:28.923Z,100.00
2022-09-27T01:43:10.266Z,100.00
2022-09-27T01:46:32.353Z,100.00
2022-09-27T01:50:11.440Z,100.00
2022-09-27T01:53:34.037Z,100.00
2022-09-27T01:56:56.697Z,100.00
2022-09-27T02:00:19.802Z,100.00
2022-09-27T02:03:39.736Z,100.00
2022-09-27T02:11:32.794Z,100.00
2022-09-27T02:15:10.565Z,100.00
2022-09-27T02:18:31.896Z,100.00
2022-09-27T02:21:54.306Z,100.00
2022-09-27T02:25:20.261Z,100.00
2022-09-27T02:28:41.094Z,100.00
2022-09-27T02:32:00.825Z,100.00
2022-09-27T02:35:23.468Z,100.00
2022-09-27T02:38:40.298Z,100.00
2022-09-27T02:41:59.153Z,100.00
2022-09-27T02:45:19.984Z,100.00
2022-09-27T02:48:42.649Z,100.00
2022-09-27T02:52:05.006Z,100.00
2022-09-27T02:55:27.911Z,100.00
2022-09-27T03:02:13.158Z,100.00
2022-09-27T03:05:32.431Z,100.00
2022-09-27T03:08:49.659Z,100.00
2022-09-27T03:12:06.381Z,100.00
2022-09-27T03:15:23.565Z,100.00
2022-09-27T03:18:49.270Z,100.00
2022-09-27T03:22:24.382Z,100.00
2022-09-27T03:25:40.902Z,100.00
2022-09-27T03:28:57.399Z,100.00
2022-09-27T03:32:14.085Z,100.00
2022-09-27T03:35:35.267Z,100.00
2022-09-27T03:38:51.706Z,100.00
2022-09-27T03:42:08.892Z,100.00
2022-09-27T03:45:26.189Z,100.00
2022-09-27T03:48:43.446Z,100.00
2022-09-27T03:51:59.866Z,100.00
2022-09-27T03:55:18.237Z,100.00
2022-09-27T04:01:49.971Z,100.00
2022-09-27T04:05:07.950Z,100.00
2022-09-27T04:08:24.513Z,100.00
2022-09-27T04:18:12.890Z,100.00
2022-09-27T04:21:31.493Z,100.00
2022-09-27T04:24:47.853Z,100.00
2022-09-27T04:28:07.051Z,100.00
2022-09-27T04:31:23.388Z,100.00
2022-09-27T04:34:55.607Z,100.00
2022-09-27T04:38:13.040Z,100.00
2022-09-27T04:41:30.805Z,100.00
2022-09-27T04:44:48.607Z,100.00
2022-09-27T04:48:05.008Z,100.00
2022-09-27T04:51:23.900Z,100.00
2022-09-27T04:54:41.135Z,100.00
2022-09-27T04:58:00.030Z,100.00
2022-09-27T05:01:17.145Z,100.00
2022-09-27T05:04:45.300Z,100.00
2022-09-27T05:08:01.831Z,100.00
2022-09-27T05:11:21.519Z,100.00
2022-09-27T05:14:55.813Z,100.00
2022-09-27T05:18:28.720Z,100.00
2022-09-27T05:22:02.911Z,100.00
2022-09-27T05:25:20.317Z,100.00
2022-09-27T05:28:36.776Z,100.00
2022-09-27T05:31:53.237Z,100.00
2022-09-27T05:35:10.004Z,100.00
2022-09-27T05:38:26.345Z,100.00
2022-09-27T05:41:44.495Z,100.00
2022-09-27T05:45:00.966Z,100.00
2022-09-27T05:48:18.510Z,100.00
2022-09-27T05:51:51.896Z,100.00
2022-09-27T05:55:08.139Z,100.00
2022-09-27T05:58:25.969Z,100.00
2022-09-27T06:01:46.567Z,100.00
2022-09-27T06:05:20.535Z,100.00
2022-09-27T06:08:51.406Z,100.00
2022-09-27T06:12:10.455Z,100.00
2022-09-27T06:15:26.860Z,100.00
2022-09-27T06:18:43.851Z,100.00
2022-09-27T06:22:01.669Z,100.00
2022-09-27T06:25:21.775Z,100.00
2022-09-27T06:28:43.546Z,100.00
2022-09-27T06:32:05.185Z,100.00
2022-09-27T06:35:40.184Z,100.00
2022-09-27T06:38:58.383Z,100.00
2022-09-27T06:42:25.353Z,100.00
2022-09-27T06:45:44.656Z,100.00
2022-09-27T06:49:09.009Z,100.00
2022-09-27T06:52:25.363Z,100.00
2022-09-27T06:55:42.098Z,100.00
2022-09-27T06:59:12.325Z,100.00
2022-09-27T07:02:30.648Z,100.00
2022-09-27T07:06:13.718Z,100.00
2022-09-27T07:09:32.155Z,100.00
2022-09-27T07:12:49.869Z,100.00
2022-09-27T07:16:07.121Z,100.00
2022-09-27T07:19:23.525Z,100.00
2022-09-27T07:22:47.371Z,100.00
2022-09-27T07:26:05.059Z,100.00
2022-09-27T07:32:37.780Z,100.00
2022-09-27T07:35:55.565Z,100.00
2022-09-27T07:39:13.012Z,100.00
2022-09-27T07:42:29.502Z,100.00
2022-09-27T07:45:49.377Z,100.00
2022-09-27T07:49:13.819Z,100.00
2022-09-27T07:52:46.176Z,100.00
2022-09-27T07:56:04.645Z,100.00
2022-09-27T07:59:22.170Z,100.00
2022-09-27T08:02:38.658Z,100.00
2022-09-27T08:05:57.145Z,100.00
2022-09-27T08:09:17.079Z,100.00
2022-09-27T08:12:33.976Z,100.00
2022-09-27T08:15:52.079Z,100.00
2022-09-27T08:19:09.274Z,100.00
2022-09-27T08:22:49.669Z,100.00
2022-09-27T08:26:14.025Z,100.00
2022-09-27T08:33:03.382Z,100.00
2022-09-27T08:36:22.296Z,100.00
2022-09-27T08:39:38.763Z,100.00
2022-09-27T08:43:01.359Z,100.00
2022-09-27T08:46:37.463Z,100.00
2022-09-27T08:49:58.840Z,100.00
2022-09-27T08:53:23.769Z,100.00
2022-09-27T08:56:42.086Z,100.00
2022-09-27T09:00:07.768Z,100.00
2022-09-27T09:03:28.364Z,100.00
2022-09-27T09:06:51.815Z,100.00
2022-09-27T09:10:14.754Z,100.00
2022-09-27T09:13:45.486Z,100.00
2022-09-27T09:17:03.709Z,100.00
2022-09-27T09:20:40.719Z,100.00
2022-09-27T09:24:23.302Z,100.00
2022-09-27T09:27:45.810Z,100.00
2022-09-27T09:31:09.100Z,100.00
2022-09-27T09:34:29.660Z,100.00
2022-09-27T09:37:51.015Z,100.00
2022-09-27T09:41:13.900Z,100.00
2022-09-27T09:44:34.987Z,100.00
2022-09-27T09:47:57.599Z,100.00
2022-09-27T09:51:20.257Z,100.00
2022-09-27T09:54:41.191Z,100.00
2022-09-27T09:58:10.854Z,100.00
2022-09-27T10:01:33.580Z,100.00
2022-09-27T10:04:49.839Z,100.00
2022-09-27T10:08:10.076Z,100.00
2022-09-27T10:11:32.974Z,100.00
2022-09-27T10:15:13.508Z,100.00
2022-09-27T10:18:30.459Z,100.00
2022-09-27T10:21:51.026Z,100.00
2022-09-27T10:25:10.252Z,100.00
2022-09-27T10:28:48.303Z,100.00
2022-09-27T10:32:08.012Z,100.00
2022-09-27T10:35:45.843Z,100.00
2022-09-27T10:39:06.031Z,100.00
2022-09-27T10:42:44.287Z,100.00
2022-09-27T10:46:14.560Z,100.00
2022-09-27T10:49:34.627Z,100.00
2022-09-27T10:52:51.931Z,100.00
2022-09-27T10:56:12.457Z,100.00
2022-09-27T10:59:31.389Z,100.00
2022-09-27T11:02:47.891Z,100.00
2022-09-27T11:06:06.092Z,100.00
2022-09-27T11:09:30.998Z,100.00
2022-09-27T11:12:47.727Z,100.00
2022-09-27T11:16:17.865Z,100.00
2022-09-27T11:19:59.928Z,100.00
2022-09-27T11:23:48.576Z,100.00
2022-09-27T11:27:16.141Z,100.00
2022-09-27T11:30:36.934Z,100.00
2022-09-27T11:34:33.262Z,100.00
2022-09-27T11:37:55.860Z,100.00
2022-09-27T11:41:32.553Z,100.00
2022-09-27T11:48:12.487Z,100.00
2022-09-27T11:51:55.528Z,100.00
2022-09-27T11:55:33.110Z,100.00
2022-09-27T11:58:56.077Z,100.00
2022-09-27T12:02:21.552Z,100.00
2022-09-27T12:05:45.004Z,100.00
2022-09-27T12:09:12.623Z,100.00
2022-09-27T12:12:33.529Z,100.00
2022-09-27T12:19:39.367Z,100.00
2022-09-27T12:23:03.236Z,100.00
2022-09-27T12:26:35.252Z,100.00
2022-09-27T12:30:07.384Z,100.00
2022-09-27T12:33:44.941Z,100.00
2022-09-27T12:37:08.772Z,98.83
2022-09-27T12:40:57.694Z,100.00
2022-09-27T12:44:20.009Z,100.00
2022-09-27T12:48:01.909Z,99.93
2022-09-27T12:51:25.928Z,100.00
2022-09-27T12:55:26.686Z,100.00
2022-09-27T12:59:13.672Z,100.00
2022-09-27T13:03:28.740Z,96.42
2022-09-27T13:07:04.530Z,95.43
2022-09-27T13:10:50.015Z,96.07
2022-09-27T13:14:09.027Z,94.73
2022-09-27T13:18:02.830Z,95.11
2022-09-27T13:21:55.243Z,91.66
2022-09-27T13:26:00.421Z,94.24
2022-09-27T13:29:38.583Z,92.33
2022-09-27T13:33:44.065Z,92.68
2022-09-27T13:37:02.066Z,91.41
2022-09-27T13:40:43.744Z,93.18
2022-09-27T13:47:35.641Z,96.50
2022-09-27T13:51:01.885Z,93.85
2022-09-27T13:54:44.200Z,90.95
2022-09-27T14:03:11.752Z,93.36
2022-09-27T14:06:38.332Z,95.52
2022-09-27T14:10:06.316Z,95.54
2022-09-27T14:18:11.802Z,100.00
2022-09-27T14:21:44.200Z,100.00
2022-09-27T14:25:28.820Z,100.00
2022-09-27T14:28:55.011Z,100.00
2022-09-27T14:32:21.159Z,100.00
2022-09-27T14:35:54.879Z,100.00
2022-09-27T14:39:19.262Z,100.00
2022-09-27T14:42:38.188Z,100.00
2022-09-27T14:45:58.371Z,100.00
2022-09-27T14:49:31.063Z,100.00
2022-09-27T14:52:50.765Z,100.00
2022-09-27T14:56:11.617Z,100.00
2022-09-27T14:59:33.041Z,100.00
2022-09-27T15:02:51.593Z,100.00
2022-09-27T15:06:11.710Z,100.00
2022-09-27T15:09:32.983Z,100.00
2022-09-27T15:12:44.998Z,100.00
2022-09-27T15:16:01.964Z,100.00
2022-09-27T15:19:27.759Z,100.00
2022-09-27T15:22:50.686Z,100.00
2022-09-27T15:26:16.783Z,100.00
2022-09-27T15:29:35.095Z,100.00
2022-09-27T15:32:58.409Z,100.00
2022-09-27T15:36:18.968Z,100.00
2022-09-27T15:39:41.249Z,100.00
2022-09-27T15:43:07.336Z,100.00
2022-09-27T15:46:47.483Z,100.00
2022-09-27T15:50:03.774Z,100.00
2022-09-27T15:53:22.637Z,100.00
2022-09-27T15:56:41.035Z,100.00
2022-09-27T15:59:57.149Z,100.00
2022-09-27T16:03:14.865Z,100.00
2022-09-27T16:06:34.425Z,100.00
2022-09-27T16:09:52.661Z,100.00
2022-09-27T16:13:07.449Z,100.00
2022-09-27T16:16:29.613Z,100.00
2022-09-27T16:19:45.986Z,100.00
2022-09-27T16:23:03.380Z,100.00
2022-09-27T16:26:20.307Z,100.00
2022-09-27T16:32:57.115Z,100.00
2022-09-27T16:36:17.812Z,100.00
2022-09-27T16:39:34.065Z,100.00
2022-09-27T16:42:50.384Z,100.00
2022-09-27T16:46:16.413Z,100.00
2022-09-27T16:49:50.111Z,100.00
2022-09-27T16:53:07.054Z,100.00
2022-09-27T16:56:27.624Z,100.00
2022-09-27T16:59:45.844Z,100.00
2022-09-27T17:03:02.335Z,100.00
2022-09-27T17:06:19.390Z,100.00
2022-09-27T17:09:36.517Z,100.00
2022-09-27T17:12:52.876Z,100.00
2022-09-27T17:19:25.442Z,100.00
2022-09-27T17:22:42.493Z,100.00
2022-09-27T17:25:59.180Z,100.00
2022-09-27T17:29:16.775Z,100.00
2022-09-27T17:32:33.422Z,100.00
2022-09-27T17:35:50.033Z,100.00
2022-09-27T17:39:07.878Z,100.00
2022-09-27T17:42:26.087Z,100.00
2022-09-27T17:45:44.031Z,100.00
2022-09-27T17:49:14.733Z,100.00
2022-09-27T17:52:32.009Z,100.00
2022-09-27T17:55:48.514Z,100.00
2022-09-27T17:59:06.646Z,100.00
2022-09-27T18:02:23.226Z,100.00
2022-09-27T18:05:40.178Z,100.00
2022-09-27T18:08:56.694Z,100.00
2022-09-27T18:12:14.860Z,100.00
2022-09-27T18:15:31.813Z,100.00
2022-09-27T18:18:50.480Z,100.00
2022-09-27T18:22:08.152Z,100.00
2022-09-27T18:25:26.187Z,100.00
2022-09-27T18:28:43.047Z,100.00
2022-09-27T18:35:16.838Z,100.00
2022-09-27T18:38:33.458Z,100.00
2022-09-27T18:41:50.719Z,100.00
2022-09-27T18:48:23.097Z,100.00
2022-09-27T18:51:41.815Z,100.00
2022-09-27T18:55:00.373Z,100.00
2022-09-27T18:58:17.640Z,100.00
2022-09-27T19:01:36.603Z,100.00
2022-09-27T19:04:53.150Z,100.00
2022-09-27T19:08:09.840Z,100.00
2022-09-27T19:11:27.238Z,100.00
2022-09-27T19:18:02.254Z,100.00
2022-09-27T19:21:23.635Z,100.00
2022-09-27T19:24:40.323Z,100.00
2022-09-27T19:27:59.184Z,100.00
2022-09-27T19:34:30.684Z,100.00
2022-09-27T19:37:47.347Z,100.00
2022-09-27T19:41:04.968Z,100.00
2022-09-27T19:44:21.509Z,100.00
2022-09-27T19:47:45.639Z,100.00
2022-09-27T19:51:09.205Z,100.00
2022-09-27T19:54:25.719Z,100.00
2022-09-27T19:57:42.497Z,100.00
2022-09-27T20:04:16.402Z,100.00
2022-09-27T20:07:34.426Z,100.00
2022-09-27T20:10:52.628Z,100.00
2022-09-27T20:14:08.951Z,100.00
2022-09-27T20:17:25.175Z,100.00
2022-09-27T20:20:41.583Z,100.00
2022-09-27T20:24:02.733Z,100.00
2022-09-27T20:27:19.173Z,100.00
2022-09-27T20:30:35.983Z,100.00
2022-09-27T20:33:53.063Z,100.00
2022-09-27T20:37:09.457Z,100.00
2022-09-27T20:40:26.414Z,100.00
2022-09-27T20:43:43.001Z,100.00
2022-09-27T20:47:11.539Z,100.00
2022-09-27T20:50:28.129Z,100.00
2022-09-27T20:53:47.714Z,100.00
2022-09-27T20:57:03.954Z,100.00
2022-09-27T21:03:35.746Z,100.00
2022-09-27T21:06:53.398Z,100.00
2022-09-27T21:10:10.050Z,100.00
2022-09-27T21:13:29.641Z,100.00
2022-09-27T21:16:45.907Z,100.00
2022-09-27T21:20:02.262Z,100.00
2022-09-27T21:23:18.415Z,100.00
2022-09-27T21:26:37.320Z,100.00
2022-09-27T21:29:53.720Z,100.00
2022-09-27T21:33:10.079Z,100.00
2022-09-27T21:36:30.706Z,100.00
2022-09-27T21:39:47.269Z,100.00
2022-09-27T21:43:03.404Z,100.00
2022-09-27T21:46:24.019Z,100.00
2022-09-27T21:49:40.310Z,100.00
2022-09-27T21:52:58.232Z,100.00
2022-09-27T21:56:16.612Z,100.00
2022-09-27T21:59:32.868Z,100.00
2022-09-27T22:02:49.102Z,100.00
2022-09-27T22:06:06.403Z,100.00
2022-09-27T22:09:25.496Z,100.00
2022-09-27T22:12:43.785Z,100.00
2022-09-27T22:16:00.390Z,100.00
2022-09-27T22:19:19.738Z,100.00
2022-09-27T22:22:36.228Z,100.00
2022-09-27T22:25:52.419Z,100.00
2022-09-27T22:29:11.941Z,100.00
2022-09-27T22:32:28.033Z,100.00
2022-09-27T22:35:44.862Z,100.00
2022-09-27T22:39:02.056Z,100.00
2022-09-27T22:42:19.412Z,100.00
2022-09-27T22:45:35.557Z,100.00
2022-09-27T22:48:52.054Z,100.00
2022-09-27T22:52:08.519Z,100.00
2022-09-27T22:55:24.946Z,100.00
2022-09-27T22:58:43.100Z,100.00
2022-09-27T23:05:16.514Z,100.00
2022-09-27T23:08:32.610Z,100.00
2022-09-27T23:11:48.822Z,100.00
2022-09-27T23:15:05.138Z,100.00
2022-09-27T23:18:21.215Z,100.00
2022-09-27T23:21:38.771Z,100.00
2022-09-27T23:24:54.793Z,100.00
2022-09-27T23:28:11.115Z,100.00
2022-09-27T23:31:30.094Z,100.00
2022-09-27T23:34:47.169Z,100.00
2022-09-27T23:38:03.662Z,100.00
2022-09-27T23:41:20.888Z,100.00
2022-09-27T23:44:37.473Z,100.00
2022-09-27T23:47:54.819Z,100.00
2022-09-27T23:51:12.210Z,100.00
2022-09-27T23:54:28.420Z,100.00
2022-09-27T23:57:44.407Z,100.00
